Time;durP1;ratioP1;P1;durP2;ratioP2;P2;SDS_P1;SDS_P2;PMS_P1;PMS_P2;Temp;Humidity;BMP_temperature;BMP_pressure;BME280_temperature;BME280_humidity;BME280_pressure;Samples;Min_cycle;Max_cycle;Signal;HPM_P1;HPM_P2
2022/10/06 00:01:33;;;;;;;4.80;2.60;;;;;;;;;;10410339;28;20033;-59
2022/10/06 00:06:33;;;;;;;12.07;3.42;;;;;;;;;;10410625;28;20113;-58
2022/10/06 00:11:34;;;;;;;7.25;2.67;;;;;;;;;;10408823;28;20032;-59
2022/10/06 00:16:34;;;;;;;7.95;2.83;;;;;;;;;;10409097;28;20049;-61
2022/10/06 00:21:34;;;;;;;8.32;3.22;;;;;;;;;;10391034;28;20117;-62
2022/10/06 00:26:35;;;;;;;7.28;2.60;;;;;;;;;;10409103;28;20033;-58
2022/10/06 00:31:35;;;;;;;6.40;2.77;;;;;;;;;;10408852;28;20030;-59
2022/10/06 00:36:36;;;;;;;6.60;3.05;;;;;;;;;;10409506;28;20045;-62
2022/10/06 00:41:37;;;;;;;5.28;2.63;;;;;;;;;;10408941;28;20257;-61
2022/10/06 00:46:46;;;;;;;6.05;2.60;;;;;;;;;;10408891;28;20025;-60
2022/10/06 00:52:07;;;;;;;4.32;2.33;;;;;;;;;;10408465;28;20354;-58
2022/10/06 00:57:07;;;;;;;4.85;2.17;;;;;;;;;;10408090;28;20481;-59
2022/10/06 01:02:26;;;;;;;5.22;2.50;;;;;;;;;;10408605;28;20025;-60
2022/10/06 01:07:27;;;;;;;4.43;2.70;;;;;;;;;;10408295;28;20025;-59
2022/10/06 01:12:28;;;;;;;6.43;2.63;;;;;;;;;;10408318;28;20525;-60
2022/10/06 01:17:31;;;;;;;5.07;2.35;;;;;;;;;;10408688;28;20056;-61
2022/10/06 01:22:39;;;;;;;6.07;2.30;;;;;;;;;;10414000;28;20064;-60
2022/10/06 01:27:41;;;;;;;5.30;2.63;;;;;;;;;;10416376;28;20040;-57
2022/10/06 01:32:41;;;;;;;4.32;2.40;;;;;;;;;;10416066;28;20095;-57
2022/10/06 01:37:41;;;;;;;4.37;2.40;;;;;;;;;;10416480;28;20091;-61
2022/10/06 01:42:42;;;;;;;7.28;2.58;;;;;;;;;;10415687;28;20029;-60
2022/10/06 01:47:42;;;;;;;4.30;2.57;;;;;;;;;;10415496;28;20038;-59
2022/10/06 01:52:42;;;;;;;4.25;2.13;;;;;;;;;;10415204;28;20029;-61
2022/10/06 01:57:43;;;;;;;6.07;2.47;;;;;;;;;;10415142;28;20037;-58
2022/10/06 02:02:43;;;;;;;3.40;2.35;;;;;;;;;;10414975;28;20040;-61
2022/10/06 02:07:44;;;;;;;4.00;2.22;;;;;;;;;;10415048;28;20124;-61
2022/10/06 02:12:48;;;;;;;5.50;2.47;;;;;;;;;;10414311;28;20076;-61
2022/10/06 02:17:48;;;;;;;3.78;2.58;;;;;;;;;;10414814;28;20358;-62
2022/10/06 02:22:48;;;;;;;3.78;1.98;;;;;;;;;;10414321;28;20504;-62
2022/10/06 02:27:49;;;;;;;2.97;2.00;;;;;;;;;;10413609;28;20381;-61
2022/10/06 02:32:49;;;;;;;4.35;2.33;;;;;;;;;;10413218;28;20477;-61
2022/10/06 02:37:49;;;;;;;6.15;2.42;;;;;;;;;;10414312;28;20121;-62
2022/10/06 02:42:50;;;;;;;5.35;2.67;;;;;;;;;;10413461;28;20048;-62
2022/10/06 02:47:50;;;;;;;4.17;2.50;;;;;;;;;;10413615;28;20030;-58
2022/10/06 02:52:50;;;;;;;4.47;2.40;;;;;;;;;;10413393;28;20432;-59
2022/10/06 02:57:52;;;;;;;7.50;2.70;;;;;;;;;;10413291;28;20052;-61
2022/10/06 03:02:52;;;;;;;7.60;2.13;;;;;;;;;;10412585;28;20044;-62
2022/10/06 03:07:53;;;;;;;3.10;2.05;;;;;;;;;;10412887;28;20056;-62
2022/10/06 03:12:53;;;;;;;12.13;3.15;;;;;;;;;;10412392;28;20064;-62
2022/10/06 03:17:53;;;;;;;2.90;2.10;;;;;;;;;;10412071;28;20120;-61
2022/10/06 03:22:53;;;;;;;4.38;2.50;;;;;;;;;;10412378;28;20034;-61
2022/10/06 03:27:54;;;;;;;4.85;2.33;;;;;;;;;;10412037;28;20037;-63
2022/10/06 03:32:54;;;;;;;3.23;1.83;;;;;;;;;;10412037;28;20032;-63
2022/10/06 03:37:54;;;;;;;4.72;2.00;;;;;;;;;;10411283;28;20228;-60
2022/10/06 03:42:55;;;;;;;2.40;2.03;;;;;;;;;;10411204;28;20029;-61
2022/10/06 03:47:55;;;;;;;3.13;2.00;;;;;;;;;;10410846;28;20477;-62
2022/10/06 03:52:55;;;;;;;3.40;2.05;;;;;;;;;;10410680;28;20393;-62
2022/10/06 03:57:56;;;;;;;3.53;2.35;;;;;;;;;;10411003;28;20105;-62
2022/10/06 04:02:56;;;;;;;2.92;2.08;;;;;;;;;;10409952;28;20029;-61
2022/10/06 04:07:56;;;;;;;3.53;1.98;;;;;;;;;;10411103;28;20445;-58
2022/10/06 04:12:57;;;;;;;2.30;2.08;;;;;;;;;;10410213;28;20539;-60
2022/10/06 04:17:57;;;;;;;3.93;2.10;;;;;;;;;;10410194;28;20150;-61
2022/10/06 04:22:57;;;;;;;4.20;2.10;;;;;;;;;;10409653;28;20030;-59
2022/10/06 04:27:58;;;;;;;3.75;1.90;;;;;;;;;;10409391;28;20040;-59
2022/10/06 04:32:58;;;;;;;2.63;2.17;;;;;;;;;;10409730;28;20026;-58
2022/10/06 04:37:59;;;;;;;2.80;1.90;;;;;;;;;;10409359;28;20029;-64
2022/10/06 04:42:59;;;;;;;3.30;2.08;;;;;;;;;;10408916;28;20388;-63
2022/10/06 04:47:59;;;;;;;2.78;2.10;;;;;;;;;;10408463;28;20029;-59
2022/10/06 04:52:59;;;;;;;3.70;2.15;;;;;;;;;;10408518;28;20030;-62
2022/10/06 04:58:00;;;;;;;3.33;2.10;;;;;;;;;;10419980;28;20025;-65
2022/10/06 05:03:00;;;;;;;3.92;2.35;;;;;;;;;;10422165;28;20499;-62
2022/10/06 05:08:01;;;;;;;2.63;1.92;;;;;;;;;;10422146;28;20145;-63
2022/10/06 05:13:02;;;;;;;3.10;2.00;;;;;;;;;;10421512;28;20366;-63
2022/10/06 05:18:03;;;;;;;2.25;2.00;;;;;;;;;;10422287;28;20033;-62
2022/10/06 05:23:05;;;;;;;3.80;1.90;;;;;;;;;;10421855;28;20483;-60
2022/10/06 05:28:05;;;;;;;5.32;2.10;;;;;;;;;;10421322;28;20467;-60
2022/10/06 05:33:06;;;;;;;3.97;2.65;;;;;;;;;;10421438;28;20388;-61
2022/10/06 05:38:08;;;;;;;7.63;2.55;;;;;;;;;;10420316;28;20392;-61
2022/10/06 05:43:08;;;;;;;4.38;2.20;;;;;;;;;;10421528;28;20032;-60
2022/10/06 05:48:09;;;;;;;3.97;2.67;;;;;;;;;;10421145;28;20032;-56
2022/10/06 05:53:09;;;;;;;12.15;2.90;;;;;;;;;;10420726;28;20441;-57
2022/10/06 05:58:09;;;;;;;7.53;2.60;;;;;;;;;;10420257;28;20021;-58
2022/10/06 06:03:10;;;;;;;9.52;2.75;;;;;;;;;;10420684;28;20030;-62
2022/10/06 06:08:10;;;;;;;7.55;2.50;;;;;;;;;;10417047;28;20477;-58
2022/10/06 06:13:10;;;;;;;15.82;2.97;;;;;;;;;;10414399;28;20049;-59
2022/10/06 06:18:11;;;;;;;5.38;2.97;;;;;;;;;;10414266;28;20400;-58
2022/10/06 06:23:11;;;;;;;8.68;3.33;;;;;;;;;;10413876;28;20499;-59
2022/10/06 06:28:12;;;;;;;12.45;2.92;;;;;;;;;;10413415;28;20521;-59
2022/10/06 06:33:12;;;;;;;9.73;3.13;;;;;;;;;;10396034;28;20075;-58
2022/10/06 06:38:12;;;;;;;7.73;3.43;;;;;;;;;;10414211;28;20033;-58
2022/10/06 06:43:13;;;;;;;8.60;3.17;;;;;;;;;;10414080;28;20354;-58
2022/10/06 06:48:14;;;;;;;7.93;3.83;;;;;;;;;;10414293;28;20461;-60
2022/10/06 06:53:14;;;;;;;14.35;3.05;;;;;;;;;;10413577;28;20156;-58
2022/10/06 06:58:15;;;;;;;8.43;3.05;;;;;;;;;;10413022;28;20108;-60
2022/10/06 07:03:17;;;;;;;8.00;2.72;;;;;;;;;;10412541;28;20361;-59
2022/10/06 07:08:19;;;;;;;7.03;3.08;;;;;;;;;;10411297;28;20065;-61
2022/10/06 07:13:19;;;;;;;7.07;2.88;;;;;;;;;;10412453;28;20109;-60
2022/10/06 07:29:00;;;;;;;7.10;3.10;;;;;;;;;;10411608;28;20060;-61
2022/10/06 07:34:02;;;;;;;5.18;3.33;;;;;;;;;;10411165;28;20473;-60
2022/10/06 07:39:03;;;;;;;8.32;2.97;;;;;;;;;;10411646;28;20118;-59
2022/10/06 07:44:04;;;;;;;10.07;3.30;;;;;;;;;;10410119;28;20503;-62
2022/10/06 07:49:04;;;;;;;6.38;3.67;;;;;;;;;;10410748;28;20026;-61
2022/10/06 07:54:05;;;;;;;5.10;3.10;;;;;;;;;;10409952;28;20025;-63
2022/10/06 07:59:06;;;;;;;6.35;2.65;;;;;;;;;;10409739;28;20420;-61
2022/10/06 08:04:06;;;;;;;11.40;3.50;;;;;;;;;;10409999;28;20029;-62
2022/10/06 08:09:06;;;;;;;11.57;3.08;;;;;;;;;;10410156;28;20108;-62
2022/10/06 08:14:08;;;;;;;3.63;2.60;;;;;;;;;;10405538;28;20280;-62
2022/10/06 08:19:10;;;;;;;6.50;3.22;;;;;;;;;;10409591;28;20029;-62
2022/10/06 08:24:10;;;;;;;5.90;3.00;;;;;;;;;;10409743;28;20057;-61
2022/10/06 08:29:10;;;;;;;3.33;2.50;;;;;;;;;;10408258;28;20116;-62
2022/10/06 08:34:11;;;;;;;5.10;2.78;;;;;;;;;;10409022;28;20083;-58
2022/10/06 08:39:11;;;;;;;6.65;3.05;;;;;;;;;;10409156;28;20049;-62
2022/10/06 08:44:15;;;;;;;9.15;3.33;;;;;;;;;;10408276;28;20095;-62
2022/10/06 08:49:20;;;;;;;7.13;2.80;;;;;;;;;;10407897;28;20033;-61
2022/10/06 08:54:39;;;;;;;4.43;2.72;;;;;;;;;;10407763;28;20499;-62
2022/10/06 08:59:43;;;;;;;5.28;2.67;;;;;;;;;;10407815;28;20385;-61
2022/10/06 09:04:43;;;;;;;6.10;2.90;;;;;;;;;;10408259;28;20022;-61
2022/10/06 09:10:05;;;;;;;4.00;2.90;;;;;;;;;;10408045;28;20076;-61
2022/10/06 09:15:18;;;;;;;8.00;2.95;;;;;;;;;;10407979;28;20479;-60
2022/10/06 09:20:19;;;;;;;8.18;2.97;;;;;;;;;;10407824;28;20493;-58
2022/10/06 09:25:21;;;;;;;6.43;2.67;;;;;;;;;;10407962;28;20500;-58
2022/10/06 09:30:22;;;;;;;3.50;2.47;;;;;;;;;;10407662;28;20034;-62
2022/10/06 09:35:23;;;;;;;9.70;2.95;;;;;;;;;;10406942;28;20030;-61
2022/10/06 09:40:30;;;;;;;2.80;2.17;;;;;;;;;;10407914;28;20091;-59
2022/10/06 09:45:30;;;;;;;4.10;2.85;;;;;;;;;;10415413;28;20036;-58
2022/10/06 09:50:30;;;;;;;3.70;2.23;;;;;;;;;;10415144;28;20025;-62
2022/10/06 09:55:36;;;;;;;9.10;2.67;;;;;;;;;;10415418;28;20524;-62
2022/10/06 10:00:45;;;;;;;7.20;3.25;;;;;;;;;;10414912;28;20022;-60
2022/10/06 10:05:46;;;;;;;4.00;2.63;;;;;;;;;;10414256;28;20052;-58
2022/10/06 10:10:48;;;;;;;4.10;2.70;;;;;;;;;;10414877;28;20033;-58
2022/10/06 10:15:56;;;;;;;4.32;2.53;;;;;;;;;;10413920;28;20045;-59
2022/10/06 10:21:03;;;;;;;4.78;2.30;;;;;;;;;;10414461;28;20022;-62
2022/10/06 10:26:12;;;;;;;2.97;2.47;;;;;;;;;;10412791;28;20127;-59
2022/10/06 10:31:20;;;;;;;3.22;2.30;;;;;;;;;;10396109;28;20413;-61
2022/10/06 10:36:24;;;;;;;4.65;2.55;;;;;;;;;;10413254;28;20449;-61
2022/10/06 10:41:26;;;;;;;5.43;2.95;;;;;;;;;;10413168;28;20164;-61
2022/10/06 10:46:38;;;;;;;4.78;2.67;;;;;;;;;;10413052;28;20037;-60
2022/10/06 10:51:51;;;;;;;3.03;2.47;;;;;;;;;;10394666;28;20104;-59
2022/10/06 10:56:52;;;;;;;2.80;2.13;;;;;;;;;;10412713;28;20037;-61
2022/10/06 11:01:57;;;;;;;5.20;2.45;;;;;;;;;;10413253;28;20037;-61
2022/10/06 11:07:02;;;;;;;2.85;2.63;;;;;;;;;;10412309;28;20068;-60
2022/10/06 11:12:05;;;;;;;4.82;2.53;;;;;;;;;;10412015;28;20045;-63
2022/10/06 11:17:05;;;;;;;2.60;2.25;;;;;;;;;;10411858;28;20025;-60
2022/10/06 11:22:10;;;;;;;2.80;2.40;;;;;;;;;;10411271;28;20499;-60
2022/10/06 11:27:25;;;;;;;3.60;2.50;;;;;;;;;;10411504;28;20056;-59
2022/10/06 11:32:26;;;;;;;3.30;2.50;;;;;;;;;;10412082;28;20017;-64
2022/10/06 11:37:26;;;;;;;6.50;2.90;;;;;;;;;;10408733;28;20485;-59
2022/10/06 11:42:39;;;;;;;3.13;2.13;;;;;;;;;;10409067;28;20029;-61
2022/10/06 11:47:55;;;;;;;2.83;2.40;;;;;;;;;;10411007;28;20121;-58
2022/10/06 11:52:55;;;;;;;2.90;2.20;;;;;;;;;;10411186;28;20033;-59
2022/10/06 11:58:09;;;;;;;2.70;2.50;;;;;;;;;;10410375;28;20029;-61
2022/10/06 12:03:28;;;;;;;3.63;2.55;;;;;;;;;;10410444;28;20041;-60
2022/10/06 12:08:35;;;;;;;6.05;2.58;;;;;;;;;;10409580;28;20389;-60
2022/10/06 12:13:46;;;;;;;3.72;2.88;;;;;;;;;;10409579;28;20072;-60
2022/10/06 12:19:06;;;;;;;3.70;2.85;;;;;;;;;;10409609;28;20398;-61
2022/10/06 12:24:25;;;;;;;5.05;2.92;;;;;;;;;;10409464;28;20048;-60
2022/10/06 12:29:26;;;;;;;;;;;;;;;;;;10409070;28;20458;-60
2022/10/06 12:34:38;;;;;;;4.55;2.95;;;;;;;;;;10408938;28;19913;-61
2022/10/06 12:39:39;;;;;;;4.07;2.85;;;;;;;;;;10409598;28;20108;-59
2022/10/06 12:44:43;;;;;;;6.38;3.42;;;;;;;;;;10409506;28;20109;-60
2022/10/06 12:49:52;;;;;;;3.83;2.63;;;;;;;;;;10408085;28;20037;-63
2022/10/06 12:54:58;;;;;;;3.08;2.65;;;;;;;;;;10408877;28;20021;-61
2022/10/06 12:59:58;;;;;;;4.38;2.38;;;;;;;;;;10408597;28;20040;-61
2022/10/06 13:05:00;;;;;;;2.70;2.50;;;;;;;;;;10408113;28;20354;-63
2022/10/06 13:10:12;;;;;;;4.57;2.88;;;;;;;;;;10408340;28;20037;-65
2022/10/06 13:15:19;;;;;;;7.40;3.20;;;;;;;;;;10407910;28;20061;-64
2022/10/06 13:20:22;;;;;;;5.65;2.85;;;;;;;;;;10416063;28;20044;-63
2022/10/06 13:25:22;;;;;;;25.77;4.30;;;;;;;;;;10416053;28;20040;-64
2022/10/06 13:30:23;;;;;;;25.57;4.13;;;;;;;;;;10415847;28;20033;-65
2022/10/06 13:35:24;;;;;;;39.93;3.93;;;;;;;;;;10415839;28;20042;-62
2022/10/06 13:40:30;;;;;;;43.42;4.30;;;;;;;;;;10416513;28;20037;-60
2022/10/06 13:45:32;;;;;;;30.30;4.47;;;;;;;;;;10416123;28;20117;-59
2022/10/06 13:50:33;;;;;;;24.58;4.15;;;;;;;;;;10415331;28;20544;-60
2022/10/06 13:55:33;;;;;;;20.42;4.47;;;;;;;;;;10414224;28;20116;-53
2022/10/06 14:00:47;;;;;;;5.60;3.28;;;;;;;;;;10415191;28;20029;-59
2022/10/06 14:05:48;;;;;;;9.23;2.92;;;;;;;;;;10395596;28;20393;-57
2022/10/06 14:10:55;;;;;;;10.15;3.38;;;;;;;;;;10414700;28;20041;-54
2022/10/06 14:16:00;;;;;;;8.23;2.70;;;;;;;;;;10413548;28;20100;-52
2022/10/06 14:21:15;;;;;;;10.75;3.00;;;;;;;;;;10414830;28;20100;-54
2022/10/06 14:26:16;;;;;;;4.22;2.75;;;;;;;;;;10414154;28;20036;-57
2022/10/06 14:31:17;;;;;;;6.35;3.00;;;;;;;;;;10412568;28;20052;-56
2022/10/06 14:36:20;;;;;;;7.82;2.75;;;;;;;;;;10413224;28;20056;-54
2022/10/06 14:41:26;;;;;;;5.75;2.95;;;;;;;;;;10412923;28;20026;-57
2022/10/06 14:46:27;;;;;;;6.32;3.35;;;;;;;;;;10412363;28;20484;-58
2022/10/06 14:51:27;;;;;;;7.57;2.63;;;;;;;;;;10413337;28;20044;-52
2022/10/06 14:56:30;;;;;;;4.67;2.80;;;;;;;;;;10413339;28;20112;-58
2022/10/06 15:01:35;;;;;;;4.85;2.92;;;;;;;;;;10412678;28;20083;-55
2022/10/06 15:11:54;;;;;;;6.05;3.00;;;;;;;;;;10412209;28;20069;-59
2022/10/06 15:16:57;;;;;;;7.15;3.15;;;;;;;;;;10411590;28;20077;-59
2022/10/06 15:21:58;;;;;;;6.78;3.33;;;;;;;;;;10412058;28;20061;-60
2022/10/06 15:32:17;;;;;;;7.25;2.95;;;;;;;;;;10410996;28;20463;-57
2022/10/06 15:37:18;;;;;;;7.13;3.08;;;;;;;;;;10410507;28;20053;-60
2022/10/06 15:42:22;;;;;;;8.00;2.90;;;;;;;;;;10410833;28;20036;-60
2022/10/06 15:47:23;;;;;;;6.60;3.17;;;;;;;;;;10410778;28;20124;-57
2022/10/06 15:52:23;;;;;;;4.07;2.40;;;;;;;;;;10410572;28;20035;-56
2022/10/06 15:57:24;;;;;;;5.07;2.58;;;;;;;;;;10410410;28;20033;-53
2022/10/06 16:02:25;;;;;;;5.45;2.80;;;;;;;;;;10409580;28;20032;-51
2022/10/06 16:07:27;;;;;;;6.53;2.97;;;;;;;;;;10409776;28;20536;-50
2022/10/06 16:12:27;;;;;;;7.05;3.22;;;;;;;;;;10410292;28;20481;-53
2022/10/06 16:17:28;;;;;;;6.75;3.25;;;;;;;;;;10409892;28;20030;-54
2022/10/06 16:22:28;;;;;;;3.33;2.65;;;;;;;;;;10410187;28;20105;-54
2022/10/06 16:27:28;;;;;;;6.45;2.95;;;;;;;;;;10409097;28;20362;-55
2022/10/06 16:32:28;;;;;;;5.43;3.00;;;;;;;;;;10409019;28;20116;-57
2022/10/06 16:37:29;;;;;;;6.45;3.00;;;;;;;;;;10409040;28;20048;-57
2022/10/06 16:42:29;;;;;;;5.65;2.83;;;;;;;;;;10409713;28;20029;-59
2022/10/06 16:47:29;;;;;;;4.53;2.80;;;;;;;;;;10407415;28;20478;-59
2022/10/06 16:52:29;;;;;;;5.00;2.70;;;;;;;;;;10406860;28;20246;-59
2022/10/06 16:57:30;;;;;;;4.95;2.85;;;;;;;;;;10408602;28;20041;-59
2022/10/06 17:02:31;;;;;;;5.65;3.35;;;;;;;;;;10408312;28;20309;-59
2022/10/06 17:07:32;;;;;;;6.35;2.97;;;;;;;;;;10408171;28;20041;-61
2022/10/06 17:12:33;;;;;;;5.57;2.55;;;;;;;;;;10420588;23;20050;-46
2022/10/06 17:17:33;;;;;;;7.20;2.80;;;;;;;;;;10408056;28;20037;-46
2022/10/06 17:22:33;;;;;;;5.57;3.38;;;;;;;;;;10405943;28;20021;-45
2022/10/06 17:27:35;;;;;;;6.03;3.60;;;;;;;;;;10407807;28;20017;-44
2022/10/06 17:32:35;;;;;;;16.35;3.33;;;;;;;;;;10407366;28;20032;-44
2022/10/06 17:37:39;;;;;;;6.20;3.03;;;;;;;;;;10406731;28;20035;-45
2022/10/06 17:42:39;;;;;;;14.60;3.38;;;;;;;;;;10406569;28;20025;-51
2022/10/06 17:47:40;;;;;;;5.30;3.45;;;;;;;;;;10406232;28;20055;-44
2022/10/06 17:52:40;;;;;;;6.80;2.95;;;;;;;;;;10405905;28;20117;-45
2022/10/06 17:57:41;;;;;;;7.35;3.53;;;;;;;;;;10407918;28;20032;-45
2022/10/06 18:02:42;;;;;;;12.98;3.47;;;;;;;;;;10408695;28;20087;-46
2022/10/06 18:07:42;;;;;;;4.97;3.10;;;;;;;;;;10414504;28;20033;-45
2022/10/06 18:12:42;;;;;;;3.58;3.03;;;;;;;;;;10414067;28;20052;-45
2022/10/06 18:17:42;;;;;;;5.57;3.30;;;;;;;;;;10413647;28;20037;-46
2022/10/06 18:22:43;;;;;;;5.20;3.42;;;;;;;;;;10413268;28;20025;-46
2022/10/06 18:27:44;;;;;;;6.13;3.00;;;;;;;;;;10413514;28;20520;-46
2022/10/06 18:32:44;;;;;;;5.55;2.97;;;;;;;;;;10414238;28;20032;-46
2022/10/06 18:37:45;;;;;;;5.38;3.13;;;;;;;;;;10413234;28;20033;-46
2022/10/06 18:42:45;;;;;;;5.85;3.25;;;;;;;;;;10413105;28;20021;-46
2022/10/06 18:53:04;;;;;;;9.05;3.30;;;;;;;;;;10413156;28;20041;-46
2022/10/06 18:58:05;;;;;;;3.85;2.67;;;;;;;;;;10411073;28;20022;-46
2022/10/06 19:03:06;;;;;;;4.28;2.95;;;;;;;;;;10412172;28;20033;-46
2022/10/06 19:08:08;;;;;;;5.38;3.00;;;;;;;;;;10412968;28;20444;-45
2022/10/06 19:13:08;;;;;;;4.93;2.97;;;;;;;;;;10411307;28;20481;-45
2022/10/06 19:18:08;;;;;;;5.00;2.70;;;;;;;;;;10413134;28;20108;-46
2022/10/06 19:23:10;;;;;;;4.55;3.00;;;;;;;;;;10411683;28;20118;-46
2022/10/06 19:28:10;;;;;;;7.00;3.30;;;;;;;;;;10411953;28;20037;-45
2022/10/06 19:33:11;;;;;;;3.10;2.80;;;;;;;;;;10411342;28;20505;-45
2022/10/06 19:38:11;;;;;;;7.72;3.10;;;;;;;;;;10410371;28;20033;-50
2022/10/06 19:43:12;;;;;;;5.20;2.85;;;;;;;;;;10410794;28;20124;-46
2022/10/06 19:48:12;;;;;;;4.28;3.13;;;;;;;;;;10410681;28;20087;-45
2022/10/06 19:53:15;;;;;;;4.57;3.03;;;;;;;;;;10410812;28;20030;-48
2022/10/06 19:58:15;;;;;;;4.38;3.13;;;;;;;;;;10410293;28;20025;-45
2022/10/06 20:03:15;;;;;;;5.47;2.70;;;;;;;;;;10410662;28;20026;-46
2022/10/06 20:08:16;;;;;;;3.28;2.60;;;;;;;;;;10409932;28;20030;-47
2022/10/06 20:13:16;;;;;;;4.22;2.60;;;;;;;;;;10409474;28;20721;-45
2022/10/06 20:18:16;;;;;;;5.73;2.63;;;;;;;;;;10409712;28;20026;-45
2022/10/06 20:23:17;;;;;;;3.45;2.90;;;;;;;;;;10409257;28;20046;-46
2022/10/06 20:28:17;;;;;;;4.38;3.10;;;;;;;;;;10409500;28;20027;-50
2022/10/06 20:33:18;;;;;;;4.72;2.40;;;;;;;;;;10408556;28;20466;-47
2022/10/06 20:40:37;;;;;;;4.32;2.88;;;;;;;;;;10409526;28;20364;-49
2022/10/06 20:43:40;;;;;;;5.18;3.28;;;;;;;;;;10408735;28;20052;-45
2022/10/06 20:48:40;;;;;;;4.80;2.60;;;;;;;;;;10408493;28;20035;-47
2022/10/06 20:53:40;;;;;;;3.43;2.43;;;;;;;;;;10408316;28;20105;-46
2022/10/06 20:58:41;;;;;;;4.57;2.60;;;;;;;;;;10407066;28;20060;-49
2022/10/06 21:03:42;;;;;;;3.30;2.53;;;;;;;;;;10408392;28;20030;-45
2022/10/06 21:08:44;;;;;;;14.77;3.83;;;;;;;;;;10408542;28;20057;-55
2022/10/06 21:13:51;;;;;;;8.30;3.42;;;;;;;;;;10407814;28;20277;-46
2022/10/06 21:18:51;;;;;;;17.63;3.35;;;;;;;;;;10408527;28;20033;-47
2022/10/06 21:23:51;;;;;;;12.73;3.78;;;;;;;;;;10408115;28;20068;-46
2022/10/06 21:28:52;;;;;;;26.87;5.70;;;;;;;;;;10407421;28;20026;-46
2022/10/06 21:33:53;;;;;;;32.47;6.53;;;;;;;;;;10407681;28;20535;-46
2022/10/06 21:38:54;;;;;;;16.73;4.70;;;;;;;;;;10411760;28;20046;-46
2022/10/06 21:44:05;;;;;;;29.98;6.00;;;;;;;;;;10415934;28;20026;-45
2022/10/06 21:49:06;;;;;;;15.82;4.10;;;;;;;;;;10415077;28;20103;-46
2022/10/06 21:54:08;;;;;;;17.13;4.35;;;;;;;;;;10414899;28;20032;-45
2022/10/06 21:59:09;;;;;;;19.38;4.95;;;;;;;;;;10414721;28;20425;-45
2022/10/06 22:04:11;;;;;;;15.00;4.40;;;;;;;;;;10414585;28;20029;-46
2022/10/06 22:09:13;;;;;;;14.15;4.30;;;;;;;;;;10413583;28;20025;-46
2022/10/06 22:14:14;;;;;;;20.70;5.03;;;;;;;;;;10411489;28;20041;-45
2022/10/06 22:19:16;;;;;;;11.15;4.50;;;;;;;;;;10413503;28;20053;-49
2022/10/06 22:24:19;;;;;;;13.57;4.15;;;;;;;;;;10414072;28;20273;-46
2022/10/06 22:29:19;;;;;;;14.70;4.60;;;;;;;;;;10413719;28;20112;-53
2022/10/06 22:34:19;;;;;;;12.47;4.17;;;;;;;;;;10413480;28;20536;-47
2022/10/06 22:39:19;;;;;;;13.50;4.22;;;;;;;;;;10413708;28;20439;-46
2022/10/06 22:44:20;;;;;;;10.20;3.95;;;;;;;;;;10412939;28;20382;-46
2022/10/06 22:49:20;;;;;;;14.80;3.90;;;;;;;;;;10411611;28;20033;-46
2022/10/06 22:54:21;;;;;;;13.00;5.05;;;;;;;;;;10412554;28;20113;-46
2022/10/06 22:59:21;;;;;;;34.30;5.68;;;;;;;;;;10412551;28;20026;-46
2022/10/06 23:04:21;;;;;;;27.30;5.68;;;;;;;;;;10412321;28;20382;-45
2022/10/06 23:09:22;;;;;;;28.02;6.43;;;;;;;;;;10412099;28;20029;-45
2022/10/06 23:14:22;;;;;;;16.50;5.97;;;;;;;;;;10393591;28;20050;-46
2022/10/06 23:19:22;;;;;;;20.90;5.90;;;;;;;;;;10411938;28;20037;-46
2022/10/06 23:24:22;;;;;;;17.25;5.05;;;;;;;;;;10411415;28;20018;-46
2022/10/06 23:29:23;;;;;;;13.85;4.20;;;;;;;;;;10411983;28;20487;-46
2022/10/06 23:34:23;;;;;;;13.93;4.43;;;;;;;;;;10411263;28;20033;-48
2022/10/06 23:39:23;;;;;;;14.33;4.50;;;;;;;;;;10411079;28;20061;-46
2022/10/06 23:44:24;;;;;;;14.65;4.32;;;;;;;;;;10411143;28;20044;-46
2022/10/06 23:49:24;;;;;;;12.17;4.37;;;;;;;;;;10411019;28;20034;-46
2022/10/06 23:54:24;;;;;;;14.77;4.32;;;;;;;;;;10410790;28;20124;-44
2022/10/06 23:59:26;;;;;;;20.90;4.80;;;;;;;;;;10410125;28;20037;-44
